createdAt,value
2019-01-29T00:00:44.546Z,102.17
2019-01-29T00:03:16.111Z,105.07
2019-01-29T00:05:47.567Z,100.70
2019-01-29T00:08:19.072Z,97.07
2019-01-29T00:10:50.627Z,99.57
2019-01-29T00:13:22.104Z,98.03
2019-01-29T00:15:53.665Z,97.67
2019-01-29T00:18:25.124Z,103.50
2019-01-29T00:20:56.551Z,99.90
2019-01-29T00:23:28.014Z,91.27
2019-01-29T00:25:59.485Z,93.97
2019-01-29T00:28:31.008Z,103.97
2019-01-29T00:31:02.445Z,109.60
2019-01-29T00:33:34.245Z,96.03
2019-01-29T00:36:05.726Z,93.37
2019-01-29T00:38:37.231Z,89.33
2019-01-29T00:41:08.677Z,96.00
2019-01-29T00:43:40.102Z,103.37
2019-01-29T00:46:13.220Z,101.67
2019-01-29T00:48:44.978Z,95.83
2019-01-29T00:51:16.430Z,109.27
2019-01-29T00:53:47.922Z,111.07
2019-01-29T00:56:19.350Z,114.43
2019-01-29T00:58:50.841Z,111.53
2019-01-29T01:01:22.321Z,103.30
2019-01-29T01:03:54.093Z,112.63
2019-01-29T01:06:25.537Z,94.80
2019-01-29T01:08:57.053Z,82.47
2019-01-29T01:11:28.637Z,96.23
2019-01-29T01:14:00.117Z,88.40
2019-01-29T01:16:31.891Z,95.13
2019-01-29T01:19:03.765Z,92.50
2019-01-29T01:21:35.176Z,89.13
2019-01-29T01:24:06.633Z,84.40
2019-01-29T01:26:38.121Z,83.80
2019-01-29T01:29:09.581Z,90.87
2019-01-29T01:31:41.010Z,83.80
2019-01-29T01:34:12.728Z,87.87
2019-01-29T01:36:44.199Z,83.83
2019-01-29T01:39:15.621Z,87.97
2019-01-29T01:41:47.051Z,78.20
2019-01-29T01:44:18.591Z,85.13
2019-01-29T01:46:50.092Z,72.97
2019-01-29T01:49:21.956Z,75.47
2019-01-29T01:51:53.413Z,73.03
2019-01-29T01:54:24.854Z,80.93
2019-01-29T01:56:56.305Z,73.63
2019-01-29T01:59:27.755Z,76.97
2019-01-29T02:01:59.226Z,69.80
2019-01-29T02:04:30.965Z,74.90
2019-01-29T02:07:02.407Z,75.27
2019-01-29T02:09:33.939Z,68.87
2019-01-29T02:12:05.403Z,71.87
2019-01-29T02:14:36.916Z,74.40
2019-01-29T02:17:08.711Z,66.20
2019-01-29T02:19:40.517Z,67.57
2019-01-29T02:22:11.975Z,71.80
2019-01-29T02:24:43.544Z,70.43
2019-01-29T02:27:14.958Z,77.70
2019-01-29T02:29:46.452Z,69.43
2019-01-29T02:32:17.871Z,69.80
2019-01-29T02:34:49.631Z,67.23
2019-01-29T02:37:21.069Z,68.00
2019-01-29T02:39:52.687Z,52.67
2019-01-29T02:42:24.161Z,65.70
2019-01-29T02:44:55.666Z,65.10
2019-01-29T02:47:27.091Z,62.93
2019-01-29T02:49:58.955Z,65.33
2019-01-29T02:52:30.408Z,44.30
2019-01-29T02:55:01.889Z,64.93
2019-01-29T02:57:33.302Z,58.13
2019-01-29T03:00:05.036Z,62.20
2019-01-29T03:02:36.581Z,60.00
2019-01-29T03:05:09.052Z,59.63
2019-01-29T03:07:40.525Z,65.73
2019-01-29T03:10:13.931Z,62.87
2019-01-29T03:12:45.342Z,57.90
2019-01-29T03:15:32.078Z,65.87
2019-01-29T03:18:03.786Z,64.83
2019-01-29T03:20:35.547Z,55.03
2019-01-29T03:23:07.019Z,60.80
2019-01-29T03:25:38.466Z,55.97
2019-01-29T03:28:09.909Z,62.27
2019-01-29T03:30:41.390Z,64.33
2019-01-29T03:33:12.871Z,56.90
2019-01-29T03:35:44.362Z,59.70
2019-01-29T03:38:15.812Z,58.07
2019-01-29T03:40:47.290Z,58.47
2019-01-29T03:43:18.759Z,59.53
2019-01-29T03:45:50.237Z,56.90
2019-01-29T03:48:21.683Z,57.27
2019-01-29T03:50:53.410Z,59.33
2019-01-29T03:53:24.890Z,58.70
2019-01-29T03:55:56.336Z,54.53
2019-01-29T03:58:27.790Z,57.70
2019-01-29T04:00:59.237Z,57.17
2019-01-29T04:03:30.738Z,59.60
2019-01-29T04:06:02.442Z,58.53
2019-01-29T04:08:33.928Z,59.77
2019-01-29T04:11:05.371Z,57.43
2019-01-29T04:13:36.809Z,60.60
2019-01-29T04:16:08.342Z,58.27
2019-01-29T04:18:39.939Z,59.37
2019-01-29T04:21:11.647Z,66.47
2019-01-29T04:23:47.796Z,58.63
2019-01-29T04:26:16.257Z,59.97
2019-01-29T04:28:47.746Z,54.67
2019-01-29T04:31:19.611Z,57.30
2019-01-29T04:33:51.075Z,57.37
2019-01-29T04:36:22.820Z,61.03
2019-01-29T04:38:54.277Z,62.10
2019-01-29T04:41:25.719Z,58.83
2019-01-29T04:43:57.192Z,60.37
2019-01-29T04:46:28.687Z,56.07
2019-01-29T04:49:00.212Z,59.23
2019-01-29T04:51:31.900Z,61.37
2019-01-29T04:54:03.372Z,58.37
2019-01-29T04:56:37.695Z,60.90
2019-01-29T04:59:09.180Z,58.40
2019-01-29T05:01:40.623Z,55.13
2019-01-29T05:04:12.077Z,57.63
2019-01-29T05:06:43.854Z,56.10
2019-01-29T05:09:15.320Z,57.47
2019-01-29T05:11:46.766Z,53.60
2019-01-29T05:14:18.239Z,53.33
2019-01-29T05:16:49.743Z,53.53
2019-01-29T05:19:21.564Z,58.10
2019-01-29T05:21:53.211Z,54.73
2019-01-29T05:24:24.981Z,54.00
2019-01-29T05:26:56.495Z,57.57
2019-01-29T05:29:28.062Z,54.77
2019-01-29T05:31:59.502Z,55.93
2019-01-29T05:34:30.951Z,60.33
2019-01-29T05:37:02.444Z,57.03
2019-01-29T05:39:33.927Z,56.27
2019-01-29T05:42:05.372Z,60.90
2019-01-29T05:44:36.903Z,68.07
2019-01-29T05:47:08.416Z,59.23
2019-01-29T05:49:39.886Z,59.20
2019-01-29T05:52:11.616Z,58.10
2019-01-29T05:54:43.081Z,57.67
2019-01-29T05:57:14.585Z,65.20
2019-01-29T05:59:46.024Z,68.43
2019-01-29T06:02:17.756Z,62.97
2019-01-29T06:04:49.198Z,60.63
2019-01-29T06:07:20.959Z,60.83
2019-01-29T06:09:52.404Z,65.10
2019-01-29T06:12:23.948Z,66.47
2019-01-29T06:14:55.410Z,62.67
2019-01-29T06:17:28.537Z,61.37
2019-01-29T06:20:00.300Z,68.27
2019-01-29T06:22:32.024Z,69.07
2019-01-29T06:25:03.490Z,64.63
2019-01-29T06:27:34.990Z,64.50
2019-01-29T06:30:08.474Z,68.20
2019-01-29T06:32:39.982Z,64.53
2019-01-29T06:35:13.947Z,72.40
2019-01-29T06:37:45.710Z,64.30
2019-01-29T06:40:26.114Z,70.70
2019-01-29T06:42:57.586Z,70.70
2019-01-29T06:45:29.009Z,69.90
2019-01-29T06:48:00.500Z,70.30
2019-01-29T06:50:31.947Z,75.80
2019-01-29T06:53:03.690Z,82.13
2019-01-29T06:55:35.174Z,83.53
2019-01-29T06:58:06.612Z,74.67
2019-01-29T07:00:38.083Z,80.47
2019-01-29T07:03:09.763Z,76.43
2019-01-29T07:05:41.243Z,71.53
2019-01-29T07:08:12.851Z,67.50
2019-01-29T07:10:44.361Z,71.53
2019-01-29T07:13:15.880Z,60.47
2019-01-29T07:19:16.160Z,82.33
2019-01-29T07:21:47.690Z,77.83
2019-01-29T07:24:19.293Z,81.93
2019-01-29T07:26:50.734Z,79.43
2019-01-29T07:29:22.174Z,84.43
2019-01-29T07:31:53.640Z,80.77
2019-01-29T07:34:25.060Z,80.40
2019-01-29T07:36:56.481Z,78.87
2019-01-29T07:39:28.320Z,70.73
2019-01-29T07:41:59.788Z,61.73
2019-01-29T07:44:31.233Z,70.23
2019-01-29T07:47:02.706Z,69.03
2019-01-29T07:49:34.176Z,61.30
2019-01-29T07:52:05.674Z,62.10
2019-01-29T07:54:37.317Z,55.07
2019-01-29T07:57:08.777Z,62.10
2019-01-29T07:59:40.296Z,61.77
2019-01-29T08:02:11.968Z,61.50
2019-01-29T08:04:43.535Z,49.57
2019-01-29T08:07:14.964Z,57.43
2019-01-29T08:09:47.253Z,52.70
2019-01-29T08:12:18.715Z,49.07
2019-01-29T08:14:50.228Z,49.90
2019-01-29T08:17:21.675Z,56.73
2019-01-29T08:19:53.256Z,47.53
2019-01-29T08:22:24.692Z,46.73
2019-01-29T08:25:01.914Z,54.70
2019-01-29T08:27:29.697Z,51.97
2019-01-29T08:30:01.175Z,45.90
2019-01-29T08:32:33.937Z,36.50
2019-01-29T08:35:05.488Z,37.63
2019-01-29T08:37:36.992Z,38.40
2019-01-29T08:40:08.969Z,38.97
2019-01-29T08:42:40.457Z,51.57
2019-01-29T08:45:11.983Z,32.70
2019-01-29T08:47:43.455Z,39.67
2019-01-29T08:50:19.096Z,53.03
2019-01-29T08:52:50.608Z,29.13
2019-01-29T08:55:22.839Z,52.63
2019-01-29T08:57:54.364Z,42.10
2019-01-29T09:00:27.590Z,41.27
2019-01-29T09:02:59.077Z,34.83
2019-01-29T09:05:30.611Z,33.83
2019-01-29T09:08:02.097Z,36.10
2019-01-29T09:10:33.928Z,46.67
2019-01-29T09:13:05.415Z,49.03
2019-01-29T09:15:36.906Z,43.40
2019-01-29T09:18:08.391Z,48.73
2019-01-29T09:20:39.855Z,39.10
2019-01-29T09:23:11.854Z,39.67
2019-01-29T09:25:43.585Z,41.83
2019-01-29T09:28:18.493Z,35.60
2019-01-29T09:30:48.294Z,31.40
2019-01-29T09:33:19.936Z,36.03
2019-01-29T09:35:51.429Z,42.87
2019-01-29T09:38:22.904Z,36.67
2019-01-29T09:40:54.748Z,32.63
2019-01-29T09:43:26.229Z,34.93
2019-01-29T09:45:57.706Z,33.17
2019-01-29T09:48:30.787Z,23.67
2019-01-29T09:51:02.255Z,32.00
2019-01-29T09:53:33.790Z,17.10
2019-01-29T09:56:05.656Z,30.90
2019-01-29T09:58:37.118Z,27.43
2019-01-29T10:01:08.620Z,30.17
2019-01-29T10:03:40.149Z,31.80
2019-01-29T10:06:11.589Z,28.23
2019-01-29T10:08:43.034Z,19.00
2019-01-29T10:11:14.805Z,25.40
2019-01-29T10:13:46.337Z,29.73
2019-01-29T10:16:17.799Z,18.30
2019-01-29T10:18:49.325Z,23.03
2019-01-29T10:21:21.954Z,17.10
2019-01-29T10:23:53.869Z,26.57
2019-01-29T10:26:25.655Z,25.43
2019-01-29T10:28:57.086Z,30.67
2019-01-29T10:31:28.583Z,26.97
2019-01-29T10:34:00.036Z,31.03
2019-01-29T10:36:31.648Z,21.13
2019-01-29T10:39:03.183Z,17.90
2019-01-29T10:41:36.600Z,22.47
2019-01-29T10:44:08.174Z,19.47
2019-01-29T10:46:39.619Z,22.90
2019-01-29T10:49:11.086Z,19.07
2019-01-29T10:51:42.535Z,20.77
2019-01-29T10:54:13.992Z,15.40
2019-01-29T10:56:45.825Z,19.03
2019-01-29T10:59:17.275Z,17.83
2019-01-29T11:01:48.776Z,19.33
2019-01-29T11:04:20.291Z,20.50
2019-01-29T11:06:51.906Z,19.23
2019-01-29T11:09:25.625Z,14.27
2019-01-29T11:11:56.888Z,21.73
2019-01-29T11:14:28.364Z,20.20
2019-01-29T11:16:59.841Z,17.77
2019-01-29T11:19:31.320Z,16.37
2019-01-29T11:22:02.779Z,21.67
2019-01-29T11:24:34.654Z,19.40
2019-01-29T11:27:06.416Z,18.83
2019-01-29T11:29:37.857Z,9.83
2019-01-29T11:32:09.389Z,16.97
2019-01-29T11:34:40.862Z,18.03
2019-01-29T11:37:12.324Z,20.30
2019-01-29T11:39:43.947Z,19.93
2019-01-29T11:42:15.749Z,20.43
2019-01-29T11:44:49.332Z,17.03
2019-01-29T11:47:20.931Z,22.73
2019-01-29T11:49:52.411Z,17.63
2019-01-29T11:52:23.897Z,17.53
2019-01-29T11:54:55.456Z,18.13
2019-01-29T11:57:27.219Z,19.03
2019-01-29T11:59:58.665Z,18.43
2019-01-29T12:02:30.185Z,20.63
2019-01-29T12:05:01.723Z,15.00
2019-01-29T12:07:33.256Z,19.93
2019-01-29T12:10:05.599Z,20.97
2019-01-29T12:12:37.351Z,21.03
2019-01-29T12:15:11.264Z,11.80
2019-01-29T12:17:46.230Z,10.03
2019-01-29T12:20:17.765Z,14.87
2019-01-29T12:22:49.315Z,16.17
2019-01-29T12:25:21.150Z,19.27
2019-01-29T12:27:52.956Z,22.97
2019-01-29T12:30:24.802Z,17.63
2019-01-29T12:32:56.318Z,10.37
2019-01-29T12:35:27.854Z,19.30
2019-01-29T12:38:00.564Z,20.70
2019-01-29T12:40:32.085Z,20.33
2019-01-29T12:43:04.131Z,22.63
2019-01-29T12:45:35.652Z,20.57
2019-01-29T12:48:07.659Z,15.77
2019-01-29T12:50:40.863Z,15.67
2019-01-29T12:53:17.188Z,18.33
2019-01-29T12:55:48.641Z,15.60
2019-01-29T12:58:20.510Z,16.57
2019-01-29T13:00:55.545Z,20.83
2019-01-29T13:03:27.011Z,20.67
2019-01-29T13:05:58.471Z,26.83
2019-01-29T13:08:29.998Z,21.03
2019-01-29T13:11:03.315Z,19.23
2019-01-29T13:13:35.137Z,20.17
2019-01-29T13:16:06.639Z,18.27
2019-01-29T13:18:38.187Z,17.57
2019-01-29T13:21:09.641Z,20.30
2019-01-29T13:23:41.136Z,20.47
2019-01-29T13:26:12.894Z,19.37
2019-01-29T13:28:44.827Z,15.00
2019-01-29T13:31:16.276Z,19.70
2019-01-29T13:33:47.772Z,18.53
2019-01-29T13:36:20.813Z,15.87
2019-01-29T13:38:52.330Z,14.27
2019-01-29T13:41:23.801Z,16.60
2019-01-29T13:43:55.537Z,15.50
2019-01-29T13:46:27.046Z,12.63
2019-01-29T13:48:58.535Z,14.77
2019-01-29T13:51:30.030Z,12.90
2019-01-29T13:54:01.534Z,13.70
2019-01-29T13:56:38.808Z,12.47
2019-01-29T13:59:06.615Z,13.27
2019-01-29T14:01:38.144Z,12.87
2019-01-29T14:04:09.731Z,16.43
2019-01-29T14:06:41.344Z,13.27
2019-01-29T14:09:12.807Z,11.10
2019-01-29T14:11:44.336Z,12.63
2019-01-29T14:14:16.160Z,11.60
2019-01-29T14:16:47.657Z,12.63
2019-01-29T14:19:19.157Z,11.50
2019-01-29T14:21:50.668Z,11.67
2019-01-29T14:24:22.100Z,9.70
2019-01-29T14:26:53.977Z,7.63
2019-01-29T14:29:26.641Z,10.70
2019-01-29T14:31:58.558Z,11.40
2019-01-29T14:34:31.241Z,7.47
2019-01-29T14:37:02.786Z,11.90
2019-01-29T14:40:07.310Z,10.33
2019-01-29T14:42:38.885Z,13.67
2019-01-29T14:45:23.467Z,7.07
2019-01-29T14:47:55.066Z,11.37
2019-01-29T14:50:26.609Z,7.53
2019-01-29T14:52:58.114Z,12.07
2019-01-29T14:55:29.592Z,8.10
2019-01-29T14:58:01.471Z,14.13
2019-01-29T15:00:33.024Z,9.70
2019-01-29T15:03:04.503Z,10.23
2019-01-29T15:05:38.979Z,10.53
2019-01-29T15:08:10.640Z,6.73
2019-01-29T15:10:42.300Z,12.10
2019-01-29T15:13:14.058Z,11.37
2019-01-29T15:15:50.865Z,8.40
2019-01-29T15:18:25.957Z,11.97
2019-01-29T15:20:57.521Z,13.37
2019-01-29T15:23:30.094Z,16.83
2019-01-29T15:26:01.605Z,10.53
2019-01-29T15:28:33.200Z,12.33
2019-01-29T15:31:05.058Z,12.40
2019-01-29T15:33:36.502Z,10.93
2019-01-29T15:36:08.305Z,12.90
2019-01-29T15:38:39.856Z,16.50
2019-01-29T15:41:11.359Z,19.00
2019-01-29T15:43:43.905Z,13.40
2019-01-29T15:46:15.593Z,19.37
2019-01-29T15:48:47.095Z,15.40
2019-01-29T15:51:18.537Z,18.70
2019-01-29T15:53:50.060Z,16.97
2019-01-29T15:56:21.540Z,20.67
2019-01-29T15:58:53.143Z,17.63
2019-01-29T16:01:24.598Z,16.67
2019-01-29T16:03:56.082Z,15.40
2019-01-29T16:06:29.222Z,18.07
2019-01-29T16:09:00.711Z,17.40
2019-01-29T16:11:33.830Z,16.77
2019-01-29T16:14:05.821Z,15.50
2019-01-29T16:16:37.655Z,17.63
2019-01-29T16:19:09.142Z,15.87
2019-01-29T16:21:40.641Z,13.53
2019-01-29T16:24:12.188Z,18.93
2019-01-29T16:26:43.887Z,18.93
2019-01-29T16:29:15.456Z,17.03
2019-01-29T16:31:47.162Z,15.17
2019-01-29T16:34:18.708Z,16.27
2019-01-29T16:36:50.197Z,18.87
2019-01-29T16:39:21.717Z,16.77
2019-01-29T16:41:53.193Z,13.87
2019-01-29T16:44:24.783Z,15.70
2019-01-29T16:46:56.883Z,20.53
2019-01-29T16:49:28.444Z,19.53
2019-01-29T16:51:59.899Z,19.77
2019-01-29T16:54:31.398Z,18.73
2019-01-29T16:57:02.867Z,21.70
2019-01-29T16:59:34.493Z,18.07
2019-01-29T17:02:06.263Z,19.53
2019-01-29T17:04:37.771Z,19.93
2019-01-29T17:07:09.311Z,19.37
2019-01-29T17:09:40.783Z,16.50
2019-01-29T17:12:12.253Z,17.63
2019-01-29T17:14:43.853Z,16.07
2019-01-29T17:17:15.679Z,17.37
2019-01-29T17:19:47.313Z,15.27
2019-01-29T17:22:18.966Z,12.97
2019-01-29T17:24:50.787Z,18.47
2019-01-29T17:27:22.346Z,21.73
2019-01-29T17:29:54.273Z,13.97
2019-01-29T17:32:30.391Z,17.80
2019-01-29T17:34:58.983Z,16.93
2019-01-29T17:37:30.542Z,20.13
2019-01-29T17:40:02.014Z,18.73
2019-01-29T17:42:33.582Z,22.80
2019-01-29T17:45:05.420Z,18.30
2019-01-29T17:47:37.607Z,20.20
2019-01-29T17:50:15.584Z,20.17
2019-01-29T17:52:47.414Z,12.50
2019-01-29T17:55:19.451Z,17.67
2019-01-29T17:57:51.585Z,20.70
2019-01-29T18:00:28.212Z,15.37
2019-01-29T18:03:00.062Z,24.77
2019-01-29T18:05:31.626Z,13.17
2019-01-29T18:08:03.155Z,13.90
2019-01-29T18:10:34.844Z,20.60
2019-01-29T18:13:07.732Z,22.93
2019-01-29T18:15:40.188Z,19.30
2019-01-29T18:18:12.056Z,19.77
2019-01-29T18:20:43.604Z,19.47
2019-01-29T18:23:15.473Z,16.97
2019-01-29T18:25:47.059Z,22.23
2019-01-29T18:28:18.592Z,16.43
2019-01-29T18:30:50.166Z,21.43
2019-01-29T18:33:21.993Z,23.43
2019-01-29T18:35:53.514Z,19.80
2019-01-29T18:38:25.160Z,16.23
2019-01-29T18:40:58.013Z,22.70
2019-01-29T18:43:29.743Z,21.33
2019-01-29T18:46:01.366Z,21.53
2019-01-29T18:48:33.214Z,29.90
2019-01-29T18:51:04.741Z,22.03
2019-01-29T18:53:36.298Z,24.23
2019-01-29T18:56:09.240Z,10.80
2019-01-29T18:58:41.279Z,29.17
2019-01-29T19:01:12.873Z,23.93
2019-01-29T19:03:44.425Z,24.83
2019-01-29T19:06:15.997Z,24.73
2019-01-29T19:08:47.667Z,24.57
2019-01-29T19:11:19.193Z,25.73
2019-01-29T19:13:51.011Z,15.17
2019-01-29T19:16:22.797Z,21.23
2019-01-29T19:18:54.597Z,23.70
2019-01-29T19:21:26.164Z,20.30
2019-01-29T19:23:57.750Z,24.00
2019-01-29T19:26:30.173Z,25.23
2019-01-29T19:29:02.475Z,28.80
2019-01-29T19:31:35.407Z,28.00
2019-01-29T19:34:07.439Z,32.50
2019-01-29T19:36:39.079Z,29.77
2019-01-29T19:39:11.288Z,32.43
2019-01-29T19:41:42.900Z,32.40
2019-01-29T19:44:14.656Z,29.13
2019-01-29T19:46:46.236Z,31.87
2019-01-29T19:49:18.322Z,30.13
2019-01-29T19:51:50.109Z,32.53
2019-01-29T19:54:21.697Z,26.13
2019-01-29T19:56:53.594Z,26.97
2019-01-29T19:59:25.263Z,27.13
2019-01-29T20:01:57.331Z,24.57
2019-01-29T20:04:29.250Z,27.90
2019-01-29T20:07:01.065Z,29.97
2019-01-29T20:09:33.620Z,19.50
2019-01-29T20:12:05.594Z,27.03
2019-01-29T20:14:37.462Z,26.23
2019-01-29T20:17:10.312Z,29.30
2019-01-29T20:19:42.312Z,28.60
2019-01-29T20:22:14.562Z,25.17
2019-01-29T20:24:46.271Z,32.90
2019-01-29T20:27:19.380Z,29.90
2019-01-29T20:29:51.030Z,32.07
2019-01-29T20:32:23.266Z,23.17
2019-01-29T20:34:55.280Z,25.90
2019-01-29T20:37:27.235Z,21.77
2019-01-29T20:39:59.029Z,26.00
2019-01-29T20:42:30.696Z,21.47
2019-01-29T20:45:02.269Z,23.37
2019-01-29T20:47:34.191Z,22.23
2019-01-29T20:50:08.203Z,17.77
2019-01-29T20:52:39.776Z,19.20
2019-01-29T20:55:11.816Z,21.13
2019-01-29T20:57:43.557Z,24.67
2019-01-29T21:00:20.189Z,15.30
2019-01-29T21:02:52.429Z,22.13
2019-01-29T21:05:24.245Z,21.07
2019-01-29T21:07:56.023Z,21.67
2019-01-29T21:10:27.549Z,22.47
2019-01-29T21:12:59.217Z,24.23
2019-01-29T21:15:38.087Z,21.43
2019-01-29T21:18:06.621Z,24.97
2019-01-29T21:20:38.815Z,27.93
2019-01-29T21:23:10.324Z,19.73
2019-01-29T21:25:41.988Z,15.70
2019-01-29T21:28:13.566Z,20.83
2019-01-29T21:30:46.562Z,19.97
2019-01-29T21:33:18.354Z,23.53
2019-01-29T21:35:49.879Z,21.23
2019-01-29T21:38:21.536Z,19.00
2019-01-29T21:40:53.035Z,18.63
2019-01-29T21:43:24.672Z,21.57
2019-01-29T21:45:56.217Z,21.13
2019-01-29T21:48:27.734Z,15.77
2019-01-29T21:50:59.644Z,21.90
2019-01-29T21:53:31.223Z,24.93
2019-01-29T21:56:02.752Z,25.80
2019-01-29T21:58:34.422Z,24.10
2019-01-29T22:01:06.071Z,21.00
2019-01-29T22:03:37.959Z,27.77
2019-01-29T22:06:09.855Z,23.47
2019-01-29T22:08:41.355Z,29.37
2019-01-29T22:11:12.886Z,24.20
2019-01-29T22:13:44.434Z,27.53
2019-01-29T22:16:16.009Z,25.03
2019-01-29T22:18:47.599Z,21.87
2019-01-29T22:21:19.736Z,26.30
2019-01-29T22:23:51.431Z,29.27
2019-01-29T22:26:23.071Z,31.60
2019-01-29T22:28:54.596Z,25.40
2019-01-29T22:31:26.342Z,28.73
2019-01-29T22:33:58.228Z,29.63
2019-01-29T22:36:30.012Z,25.77
2019-01-29T22:39:01.541Z,26.43
2019-01-29T22:41:34.626Z,26.80
2019-01-29T22:44:06.161Z,26.20
2019-01-29T22:46:37.661Z,23.80
2019-01-29T22:49:09.124Z,24.40
2019-01-29T22:51:41.086Z,26.87
2019-01-29T22:54:12.589Z,26.73
2019-01-29T22:56:44.037Z,28.13
2019-01-29T22:59:15.516Z,25.57
2019-01-29T23:01:47.048Z,26.57
2019-01-29T23:04:34.710Z,27.17
2019-01-29T23:07:31.706Z,28.50
2019-01-29T23:10:05.018Z,28.23
2019-01-29T23:12:36.529Z,31.80
2019-01-29T23:15:10.503Z,32.77
2019-01-29T23:17:42.031Z,34.10
2019-01-29T23:20:14.018Z,32.20
2019-01-29T23:22:46.021Z,33.63
2019-01-29T23:25:17.675Z,34.47
2019-01-29T23:27:49.248Z,28.90
2019-01-29T23:30:20.763Z,28.23
2019-01-29T23:32:52.310Z,32.50
2019-01-29T23:35:24.148Z,27.37
2019-01-29T23:37:56.050Z,30.57
2019-01-29T23:40:27.620Z,31.07
2019-01-29T23:42:59.086Z,25.70
2019-01-29T23:45:30.574Z,27.23
2019-01-29T23:48:03.281Z,29.67
2019-01-29T23:50:34.761Z,33.33
2019-01-29T23:53:06.238Z,36.30
2019-01-29T23:55:39.116Z,28.13
2019-01-29T23:58:10.561Z,29.60
